createdAt,value
2023-01-03T00:02:00.946Z,58.74
2023-01-03T00:04:27.763Z,58.05
2023-01-03T00:06:54.443Z,58.41
2023-01-03T00:09:23.433Z,57.96
2023-01-03T00:12:09.745Z,57.81
2023-01-03T00:14:38.966Z,58.11
2023-01-03T00:17:07.637Z,58.30
2023-01-03T00:19:37.054Z,58.11
2023-01-03T00:22:04.051Z,58.46
2023-01-03T00:24:31.075Z,59.01
2023-01-03T00:27:00.750Z,58.93
2023-01-03T00:29:27.529Z,58.90
2023-01-03T00:31:54.300Z,59.44
2023-01-03T00:34:21.281Z,59.75
2023-01-03T00:36:48.354Z,60.23
2023-01-03T00:39:14.976Z,60.42
2023-01-03T00:41:41.961Z,61.01
2023-01-03T00:44:08.677Z,60.74
2023-01-03T00:46:36.068Z,61.14
2023-01-03T00:49:03.809Z,61.05
2023-01-03T00:51:32.032Z,60.95
2023-01-03T00:53:59.296Z,61.61
2023-01-03T00:56:27.699Z,61.37
2023-01-03T00:58:54.911Z,61.67
2023-01-03T01:01:23.785Z,61.71
2023-01-03T01:03:52.429Z,61.14
2023-01-03T01:06:21.020Z,61.06
2023-01-03T01:08:51.129Z,61.15
2023-01-03T01:11:17.841Z,60.64
2023-01-03T01:13:45.363Z,61.02
2023-01-03T01:16:13.927Z,60.69
2023-01-03T01:18:41.236Z,61.60
2023-01-03T01:21:08.732Z,61.58
2023-01-03T01:23:35.914Z,61.42
2023-01-03T01:26:03.648Z,61.34
2023-01-03T01:28:33.050Z,61.61
2023-01-03T01:31:03.734Z,61.00
2023-01-03T01:33:31.682Z,61.17
2023-01-03T01:35:58.170Z,60.76
2023-01-03T01:38:24.933Z,60.84
2023-01-03T01:40:51.482Z,61.12
2023-01-03T01:43:38.276Z,61.27
2023-01-03T01:46:11.425Z,61.36
2023-01-03T01:48:38.582Z,61.85
2023-01-03T01:51:05.321Z,61.49
2023-01-03T01:53:36.763Z,61.38
2023-01-03T01:56:08.514Z,61.77
2023-01-03T01:58:36.631Z,62.01
2023-01-03T02:01:09.960Z,62.15
2023-01-03T02:03:36.911Z,62.39
2023-01-03T02:06:05.208Z,62.50
2023-01-03T02:08:31.695Z,62.69
2023-01-03T02:11:04.102Z,62.13
2023-01-03T02:13:48.982Z,62.88
2023-01-03T02:16:15.527Z,63.30
2023-01-03T02:18:46.788Z,63.07
2023-01-03T02:21:25.636Z,62.67
2023-01-03T02:24:10.937Z,63.42
2023-01-03T02:26:40.396Z,63.38
2023-01-03T02:29:12.816Z,63.45
2023-01-03T02:31:52.686Z,63.25
2023-01-03T02:34:27.476Z,62.92
2023-01-03T02:37:03.875Z,63.56
2023-01-03T02:39:40.818Z,63.33
2023-01-03T02:42:46.292Z,63.61
2023-01-03T02:45:39.260Z,63.20
2023-01-03T02:48:15.303Z,63.58
2023-01-03T02:50:45.967Z,63.59
2023-01-03T02:53:14.611Z,63.56
2023-01-03T02:55:43.270Z,63.68
2023-01-03T02:58:12.912Z,63.30
2023-01-03T03:00:41.430Z,64.05
2023-01-03T03:03:12.412Z,64.14
2023-01-03T03:06:00.569Z,64.25
2023-01-03T03:08:27.092Z,63.97
2023-01-03T03:11:13.029Z,64.74
2023-01-03T03:13:41.193Z,64.24
2023-01-03T03:16:11.770Z,64.00
2023-01-03T03:18:50.516Z,64.11
2023-01-03T03:21:37.164Z,63.99
2023-01-03T03:24:30.472Z,64.31
2023-01-03T03:26:58.365Z,64.50
2023-01-03T03:29:25.774Z,64.22
2023-01-03T03:31:52.807Z,64.81
2023-01-03T03:34:22.291Z,64.35
2023-01-03T03:36:48.890Z,64.43
2023-01-03T03:39:34.951Z,65.13
2023-01-03T03:42:38.117Z,65.07
2023-01-03T03:45:12.929Z,65.06
2023-01-03T03:47:49.098Z,64.63
2023-01-03T03:50:32.087Z,65.48
2023-01-03T03:53:00.274Z,64.88
2023-01-03T03:55:41.646Z,65.86
2023-01-03T03:58:11.795Z,66.16
2023-01-03T04:00:40.039Z,66.20
2023-01-03T04:03:08.090Z,66.26
2023-01-03T04:05:37.592Z,66.15
2023-01-03T04:08:04.214Z,66.57
2023-01-03T04:10:37.244Z,66.69
2023-01-03T04:13:04.555Z,66.50
2023-01-03T04:15:31.151Z,66.30
2023-01-03T04:17:57.763Z,66.47
2023-01-03T04:20:24.299Z,66.53
2023-01-03T04:22:50.789Z,66.31
2023-01-03T04:25:17.265Z,66.43
2023-01-03T04:27:43.740Z,65.90
2023-01-03T04:30:11.539Z,66.31
2023-01-03T04:32:38.451Z,65.65
2023-01-03T04:35:05.274Z,65.58
2023-01-03T04:37:31.993Z,65.58
2023-01-03T04:39:58.428Z,64.97
2023-01-03T04:42:51.068Z,64.99
2023-01-03T04:45:17.740Z,65.05
2023-01-03T04:47:44.317Z,64.64
2023-01-03T04:50:10.975Z,64.77
2023-01-03T04:52:37.433Z,64.64
2023-01-03T04:55:04.138Z,64.39
2023-01-03T04:57:30.609Z,64.87
2023-01-03T04:59:57.123Z,64.91
2023-01-03T05:02:23.652Z,64.58
2023-01-03T05:04:50.314Z,64.20
2023-01-03T05:07:16.801Z,64.50
2023-01-03T05:09:43.512Z,64.67
2023-01-03T05:12:12.125Z,64.37
2023-01-03T05:14:41.515Z,64.51
2023-01-03T05:17:08.735Z,64.37
2023-01-03T05:19:35.326Z,63.95
2023-01-03T05:22:20.364Z,64.55
2023-01-03T05:25:05.232Z,64.44
2023-01-03T05:27:31.787Z,63.96
2023-01-03T05:29:58.309Z,63.80
2023-01-03T05:32:25.122Z,64.23
2023-01-03T05:34:51.710Z,64.14
2023-01-03T05:37:18.256Z,63.49
2023-01-03T05:39:44.744Z,64.05
2023-01-03T05:42:11.228Z,63.70
2023-01-03T05:44:37.830Z,63.88
2023-01-03T05:47:05.596Z,63.59
2023-01-03T05:49:32.211Z,63.80
2023-01-03T05:51:58.724Z,63.51
2023-01-03T05:54:26.031Z,63.31
2023-01-03T05:56:52.733Z,63.64
2023-01-03T05:59:19.603Z,63.88
2023-01-03T06:01:46.212Z,63.31
2023-01-03T06:04:13.021Z,63.81
2023-01-03T06:06:39.593Z,63.56
2023-01-03T06:09:07.067Z,63.96
2023-01-03T06:11:33.708Z,64.56
2023-01-03T06:14:00.327Z,64.18
2023-01-03T06:16:45.509Z,64.79
2023-01-03T06:19:12.171Z,64.80
2023-01-03T06:21:38.812Z,64.95
2023-01-03T06:24:05.619Z,64.80
2023-01-03T06:26:32.276Z,64.53
2023-01-03T06:28:58.872Z,64.48
2023-01-03T06:31:25.468Z,64.78
2023-01-03T06:33:52.230Z,64.30
2023-01-03T06:36:20.145Z,63.74
2023-01-03T06:38:46.774Z,64.07
2023-01-03T06:41:13.862Z,63.82
2023-01-03T06:43:40.797Z,64.64
2023-01-03T06:46:26.025Z,64.66
2023-01-03T06:49:11.312Z,64.08
2023-01-03T06:51:56.589Z,64.35
2023-01-03T06:54:24.591Z,64.22
2023-01-03T06:56:51.594Z,64.46
2023-01-03T06:59:18.248Z,64.35
2023-01-03T07:01:45.102Z,64.00
2023-01-03T07:04:12.385Z,63.40
2023-01-03T07:06:39.244Z,63.94
2023-01-03T07:09:05.824Z,63.47
2023-01-03T07:11:32.470Z,63.48
2023-01-03T07:13:59.262Z,63.11
2023-01-03T07:16:30.658Z,63.09
2023-01-03T07:18:57.997Z,63.09
2023-01-03T07:21:25.368Z,63.02
2023-01-03T07:23:55.394Z,63.12
2023-01-03T07:26:24.213Z,62.73
2023-01-03T07:28:51.579Z,63.21
2023-01-03T07:31:18.233Z,63.04
2023-01-03T07:33:45.427Z,63.25
2023-01-03T07:36:12.957Z,63.59
2023-01-03T07:38:40.383Z,63.42
2023-01-03T07:41:09.858Z,63.32
2023-01-03T07:43:37.190Z,63.12
2023-01-03T07:46:09.845Z,63.32
2023-01-03T07:48:36.637Z,63.43
2023-01-03T07:51:04.459Z,63.12
2023-01-03T07:53:31.108Z,63.15
2023-01-03T07:56:13.413Z,63.20
2023-01-03T07:58:41.450Z,63.07
2023-01-03T08:01:12.488Z,63.29
2023-01-03T08:03:39.683Z,63.32
2023-01-03T08:06:10.715Z,63.90
2023-01-03T08:08:38.057Z,63.91
2023-01-03T08:11:23.308Z,63.94
2023-01-03T08:13:50.205Z,64.89
2023-01-03T08:16:17.734Z,64.29
2023-01-03T08:18:44.696Z,64.49
2023-01-03T08:21:12.633Z,65.02
2023-01-03T08:23:39.521Z,65.29
2023-01-03T08:26:07.595Z,65.07
2023-01-03T08:28:34.727Z,65.09
2023-01-03T08:31:03.812Z,65.12
2023-01-03T08:33:34.504Z,66.10
2023-01-03T08:36:03.396Z,65.68
2023-01-03T08:38:35.631Z,66.58
2023-01-03T08:41:03.026Z,66.14
2023-01-03T08:43:32.410Z,66.88
2023-01-03T08:45:59.062Z,66.36
2023-01-03T08:48:25.836Z,66.83
2023-01-03T08:50:52.457Z,66.64
2023-01-03T08:53:19.000Z,66.57
2023-01-03T08:55:45.715Z,66.00
2023-01-03T08:58:12.326Z,65.63
2023-01-03T09:00:39.791Z,65.07
2023-01-03T09:03:06.700Z,65.02
2023-01-03T09:05:33.398Z,64.66
2023-01-03T09:08:00.063Z,64.11
2023-01-03T09:10:26.947Z,63.60
2023-01-03T09:12:53.530Z,62.08
2023-01-03T09:15:20.161Z,62.01
2023-01-03T09:17:48.420Z,61.36
2023-01-03T09:20:16.223Z,60.33
2023-01-03T09:22:42.780Z,59.89
2023-01-03T09:25:10.184Z,59.13
2023-01-03T09:27:36.734Z,59.18
2023-01-03T09:30:03.952Z,59.23
2023-01-03T09:32:30.463Z,59.97
2023-01-03T09:34:58.856Z,61.47
2023-01-03T09:37:25.644Z,61.67
2023-01-03T09:39:52.429Z,62.13
2023-01-03T09:42:39.886Z,62.77
2023-01-03T09:45:08.233Z,63.57
2023-01-03T09:47:36.964Z,63.68
2023-01-03T09:50:38.899Z,63.72
2023-01-03T09:53:09.964Z,63.50
2023-01-03T09:56:06.294Z,64.33
2023-01-03T09:58:51.408Z,64.87
2023-01-03T10:01:52.455Z,64.82
2023-01-03T10:04:24.865Z,65.24
2023-01-03T10:07:02.456Z,65.60
2023-01-03T10:09:48.048Z,65.40
2023-01-03T10:12:35.209Z,65.68
2023-01-03T10:15:02.034Z,64.97
2023-01-03T10:17:34.804Z,65.23
2023-01-03T10:20:09.043Z,64.76
2023-01-03T10:22:36.146Z,64.59
2023-01-03T10:25:05.951Z,64.56
2023-01-03T10:27:36.331Z,64.27
2023-01-03T10:30:05.991Z,62.76
2023-01-03T10:32:49.374Z,62.09
2023-01-03T10:35:28.329Z,61.63
2023-01-03T10:37:56.075Z,62.21
2023-01-03T10:40:31.590Z,61.55
2023-01-03T10:42:58.223Z,61.14
2023-01-03T10:45:24.948Z,61.17
2023-01-03T10:48:01.385Z,60.96
2023-01-03T10:50:28.718Z,61.16
2023-01-03T10:52:59.628Z,60.27
2023-01-03T10:55:26.845Z,60.24
2023-01-03T10:57:53.474Z,60.37
2023-01-03T11:00:23.133Z,59.99
2023-01-03T11:02:50.532Z,59.48
2023-01-03T11:05:18.229Z,59.35
2023-01-03T11:07:45.563Z,59.40
2023-01-03T11:10:18.845Z,58.42
2023-01-03T11:12:48.756Z,58.00
2023-01-03T11:15:16.995Z,58.52
2023-01-03T11:17:54.171Z,58.36
2023-01-03T11:20:31.764Z,57.81
2023-01-03T11:23:08.137Z,58.46
2023-01-03T11:25:34.652Z,57.87
2023-01-03T11:28:20.176Z,58.21
2023-01-03T11:30:57.592Z,57.63
2023-01-03T11:33:39.536Z,57.70
2023-01-03T11:36:25.046Z,57.83
2023-01-03T11:38:55.463Z,57.43
2023-01-03T11:41:38.566Z,57.11
2023-01-03T11:44:20.546Z,56.95
2023-01-03T11:46:47.136Z,55.84
2023-01-03T11:49:21.534Z,55.32
2023-01-03T11:52:06.836Z,54.48
2023-01-03T11:54:36.302Z,52.33
2023-01-03T11:57:09.079Z,52.86
2023-01-03T11:59:35.634Z,51.26
2023-01-03T12:02:22.252Z,51.00
2023-01-03T12:05:06.066Z,50.85
2023-01-03T12:07:51.937Z,46.83
2023-01-03T12:10:28.298Z,45.81
2023-01-03T12:13:13.767Z,47.26
2023-01-03T12:15:47.954Z,47.22
2023-01-03T12:18:29.945Z,46.60
2023-01-03T12:20:59.870Z,46.38
2023-01-03T12:23:37.564Z,47.33
2023-01-03T12:26:06.567Z,48.01
2023-01-03T12:28:40.918Z,48.50
2023-01-03T12:31:18.190Z,48.14
2023-01-03T12:33:49.091Z,42.73
2023-01-03T12:36:38.916Z,39.03
2023-01-03T12:39:32.648Z,33.80
2023-01-03T12:42:03.488Z,33.01
2023-01-03T12:44:36.576Z,32.41
2023-01-03T12:47:03.673Z,34.55
2023-01-03T12:49:34.889Z,37.61
2023-01-03T12:52:01.476Z,36.84
2023-01-03T12:54:27.990Z,36.36
2023-01-03T12:57:17.626Z,36.19
2023-01-03T12:59:44.720Z,35.14
2023-01-03T13:02:29.835Z,37.00
2023-01-03T13:05:04.205Z,38.89
2023-01-03T13:07:32.092Z,41.99
2023-01-03T13:10:02.072Z,44.46
2023-01-03T13:12:30.986Z,45.76
2023-01-03T13:15:05.895Z,45.90
2023-01-03T13:17:41.846Z,46.85
2023-01-03T13:20:14.421Z,47.65
2023-01-03T13:22:46.569Z,48.63
2023-01-03T13:25:31.732Z,49.45
2023-01-03T13:28:05.666Z,49.85
2023-01-03T13:30:36.613Z,49.10
2023-01-03T13:33:03.039Z,49.34
2023-01-03T13:35:33.959Z,49.37
2023-01-03T13:38:11.360Z,49.41
2023-01-03T13:41:15.975Z,49.28
2023-01-03T13:43:36.143Z,49.61
2023-01-03T13:46:25.924Z,49.40
2023-01-03T13:49:03.212Z,49.75
2023-01-03T13:51:34.631Z,50.10
2023-01-03T13:54:25.049Z,50.10
2023-01-03T13:56:54.733Z,50.64
2023-01-03T13:59:42.503Z,50.56
2023-01-03T14:02:12.135Z,51.36
2023-01-03T14:04:44.991Z,51.80
2023-01-03T14:07:30.458Z,51.65
2023-01-03T14:10:12.054Z,51.14
2023-01-03T14:12:38.755Z,51.70
2023-01-03T14:15:23.114Z,51.90
2023-01-03T14:17:55.322Z,52.32
2023-01-03T14:20:23.782Z,52.44
2023-01-03T14:22:51.683Z,53.16
2023-01-03T14:25:31.802Z,53.17
2023-01-03T14:28:00.675Z,53.97
2023-01-03T14:30:31.770Z,54.10
2023-01-03T14:32:58.844Z,54.23
2023-01-03T14:35:35.761Z,54.65
2023-01-03T14:38:06.823Z,55.03
2023-01-03T14:40:34.320Z,55.63
2023-01-03T14:43:04.864Z,56.12
2023-01-03T14:45:31.491Z,56.04
2023-01-03T14:47:58.252Z,55.84
2023-01-03T14:50:27.143Z,55.38
2023-01-03T14:52:58.143Z,55.26
2023-01-03T14:55:29.491Z,55.10
2023-01-03T14:57:57.775Z,55.27
2023-01-03T15:00:32.907Z,54.83
2023-01-03T15:03:01.166Z,55.19
2023-01-03T15:05:33.104Z,54.66
2023-01-03T15:08:10.272Z,55.01
2023-01-03T15:10:59.640Z,54.87
2023-01-03T15:13:29.973Z,54.95
2023-01-03T15:15:58.215Z,54.96
2023-01-03T15:18:26.039Z,54.95
2023-01-03T15:20:53.795Z,55.43
2023-01-03T15:23:28.931Z,55.21
2023-01-03T15:25:55.555Z,55.25
2023-01-03T15:28:35.528Z,55.13
2023-01-03T15:31:14.511Z,55.24
2023-01-03T15:33:41.442Z,55.07
2023-01-03T15:36:18.182Z,55.51
2023-01-03T15:38:46.409Z,55.79
2023-01-03T15:41:40.267Z,56.37
2023-01-03T15:44:07.236Z,56.61
2023-01-03T15:46:34.271Z,56.37
2023-01-03T15:49:02.036Z,56.37
2023-01-03T15:51:28.639Z,56.27
2023-01-03T15:53:55.158Z,56.05
2023-01-03T15:56:23.787Z,55.74
2023-01-03T15:58:52.019Z,55.73
2023-01-03T16:01:19.130Z,55.72
2023-01-03T16:03:46.554Z,55.74
2023-01-03T16:06:13.263Z,55.92
2023-01-03T16:08:40.313Z,55.62
2023-01-03T16:11:15.543Z,55.75
2023-01-03T16:13:46.208Z,55.40
2023-01-03T16:16:15.797Z,55.40
2023-01-03T16:18:44.884Z,55.50
2023-01-03T16:21:12.881Z,55.95
2023-01-03T16:23:39.747Z,55.69
2023-01-03T16:26:06.294Z,56.31
2023-01-03T16:28:32.840Z,56.40
2023-01-03T16:31:01.289Z,56.38
2023-01-03T16:33:34.757Z,56.58
2023-01-03T16:36:02.153Z,56.82
2023-01-03T16:38:29.644Z,56.46
2023-01-03T16:40:56.617Z,56.36
2023-01-03T16:43:26.810Z,56.57
2023-01-03T16:45:54.768Z,56.81
2023-01-03T16:48:23.330Z,57.28
2023-01-03T16:50:51.959Z,57.40
2023-01-03T16:53:25.019Z,57.59
2023-01-03T16:55:54.637Z,57.30
2023-01-03T16:58:21.230Z,57.07
2023-01-03T17:00:47.942Z,56.64
2023-01-03T17:03:14.673Z,57.08
2023-01-03T17:05:41.639Z,56.45
2023-01-03T17:08:16.198Z,56.32
2023-01-03T17:10:46.159Z,56.41
2023-01-03T17:13:27.400Z,56.80
2023-01-03T17:15:54.739Z,57.34
2023-01-03T17:18:23.116Z,57.45
2023-01-03T17:20:52.835Z,57.14
2023-01-03T17:23:19.669Z,57.47
2023-01-03T17:25:46.346Z,58.00
2023-01-03T17:28:12.963Z,58.21
2023-01-03T17:30:39.533Z,58.21
2023-01-03T17:33:06.172Z,58.04
2023-01-03T17:35:33.422Z,58.15
2023-01-03T17:38:27.464Z,58.36
2023-01-03T17:40:48.279Z,57.85
2023-01-03T17:43:22.469Z,57.92
2023-01-03T17:46:08.755Z,58.02
2023-01-03T17:48:54.126Z,57.55
2023-01-03T17:51:21.407Z,57.66
2023-01-03T17:53:49.775Z,57.23
2023-01-03T17:56:17.442Z,56.91
2023-01-03T17:58:44.298Z,56.68
2023-01-03T18:01:13.407Z,57.08
2023-01-03T18:03:40.387Z,57.21
2023-01-03T18:06:11.816Z,57.50
2023-01-03T18:08:38.477Z,57.46
2023-01-03T18:11:07.294Z,56.79
2023-01-03T18:13:35.960Z,56.89
2023-01-03T18:16:03.365Z,56.79
2023-01-03T18:18:31.359Z,56.55
2023-01-03T18:20:58.236Z,56.71
2023-01-03T18:23:27.763Z,56.48
2023-01-03T18:25:54.812Z,57.04
2023-01-03T18:28:25.748Z,57.04
2023-01-03T18:30:52.803Z,57.15
2023-01-03T18:33:19.536Z,57.16
2023-01-03T18:35:46.164Z,56.00
2023-01-03T18:38:33.016Z,55.88
2023-01-03T18:41:04.889Z,56.11
2023-01-03T18:43:32.651Z,55.87
2023-01-03T18:45:59.430Z,55.84
2023-01-03T18:48:26.027Z,55.84
2023-01-03T18:50:58.285Z,56.01
2023-01-03T18:53:28.302Z,56.51
2023-01-03T18:55:54.917Z,56.42
2023-01-03T18:58:33.690Z,56.59
2023-01-03T19:01:00.247Z,56.39
2023-01-03T19:03:28.168Z,56.68
2023-01-03T19:05:55.493Z,56.65
2023-01-03T19:08:24.342Z,56.88
2023-01-03T19:10:51.437Z,56.56
2023-01-03T19:13:30.385Z,56.54
2023-01-03T19:15:57.207Z,57.04
2023-01-03T19:18:23.825Z,57.17
2023-01-03T19:20:50.765Z,56.94
2023-01-03T19:23:23.867Z,56.43
2023-01-03T19:25:50.870Z,57.01
2023-01-03T19:28:22.273Z,56.67
2023-01-03T19:30:49.421Z,56.71
2023-01-03T19:33:16.462Z,55.96
2023-01-03T19:35:43.617Z,55.98
2023-01-03T19:38:10.242Z,55.95
2023-01-03T19:40:38.806Z,55.99
2023-01-03T19:43:05.609Z,55.74
2023-01-03T19:45:33.627Z,55.72
2023-01-03T19:48:01.355Z,55.90
2023-01-03T19:50:32.938Z,56.29
2023-01-03T19:53:01.608Z,56.86
2023-01-03T19:55:30.522Z,56.70
2023-01-03T19:57:57.946Z,56.57
2023-01-03T20:00:28.820Z,57.30
2023-01-03T20:02:57.587Z,56.82
2023-01-03T20:05:26.557Z,57.46
2023-01-03T20:07:53.639Z,57.72
2023-01-03T20:10:22.657Z,57.86
2023-01-03T20:12:51.183Z,57.97
2023-01-03T20:15:24.703Z,57.53
2023-01-03T20:17:54.252Z,58.42
2023-01-03T20:20:22.464Z,58.05
2023-01-03T20:23:06.701Z,58.37
2023-01-03T20:25:34.744Z,58.57
2023-01-03T20:28:01.632Z,58.59
2023-01-03T20:30:29.360Z,59.06
2023-01-03T20:32:56.576Z,58.70
2023-01-03T20:38:11.685Z,59.46
2023-01-03T20:40:39.197Z,59.90
2023-01-03T20:43:05.834Z,59.75
2023-01-03T20:45:32.514Z,60.30
2023-01-03T20:47:59.848Z,59.79
2023-01-03T20:50:28.900Z,60.15
2023-01-03T20:52:59.278Z,59.98
2023-01-03T20:55:29.998Z,60.56
2023-01-03T20:58:00.122Z,60.08
2023-01-03T21:00:29.794Z,60.65
2023-01-03T21:02:56.569Z,60.02
2023-01-03T21:05:23.655Z,60.83
2023-01-03T21:08:08.793Z,60.52
2023-01-03T21:10:40.397Z,60.62
2023-01-03T21:13:07.758Z,60.71
2023-01-03T21:15:34.953Z,60.86
2023-01-03T21:18:03.781Z,60.73
2023-01-03T21:20:31.059Z,60.97
2023-01-03T21:22:57.811Z,60.98
2023-01-03T21:25:30.255Z,60.42
2023-01-03T21:27:56.866Z,60.79
2023-01-03T21:30:24.342Z,61.35
2023-01-03T21:32:51.217Z,61.43
2023-01-03T21:35:19.306Z,61.62
2023-01-03T21:37:46.480Z,61.90
2023-01-03T21:40:16.279Z,61.92
2023-01-03T21:43:04.614Z,61.89
2023-01-03T21:45:38.940Z,62.28
2023-01-03T21:48:13.285Z,63.06
2023-01-03T21:50:41.131Z,63.52
2023-01-03T21:53:09.931Z,63.95
2023-01-03T21:55:39.452Z,64.14
2023-01-03T21:58:06.546Z,64.43
2023-01-03T22:00:33.132Z,64.35
2023-01-03T22:03:18.348Z,64.82
2023-01-03T22:05:44.924Z,64.37
2023-01-03T22:08:11.863Z,64.84
2023-01-03T22:10:38.982Z,64.21
2023-01-03T22:13:07.096Z,64.81
2023-01-03T22:15:37.835Z,64.74
2023-01-03T22:18:06.082Z,64.62
2023-01-03T22:20:38.215Z,64.43
2023-01-03T22:23:06.595Z,64.42
2023-01-03T22:25:33.184Z,64.66
2023-01-03T22:27:59.653Z,64.66
2023-01-03T22:30:26.224Z,64.12
2023-01-03T22:32:55.509Z,64.32
2023-01-03T22:35:21.977Z,64.06
2023-01-03T22:37:48.515Z,64.47
2023-01-03T22:40:16.227Z,64.80
2023-01-03T22:42:42.832Z,64.50
2023-01-03T22:45:09.999Z,64.71
2023-01-03T22:47:37.080Z,65.31
2023-01-03T22:50:04.643Z,64.80
2023-01-03T22:52:31.220Z,65.13
2023-01-03T22:54:57.804Z,65.14
2023-01-03T22:57:24.459Z,65.03
2023-01-03T22:59:51.160Z,65.59
2023-01-03T23:02:17.887Z,65.65
2023-01-03T23:04:44.572Z,65.78
2023-01-03T23:07:11.304Z,65.79
2023-01-03T23:09:38.155Z,65.85
2023-01-03T23:12:23.322Z,65.75
2023-01-03T23:14:49.874Z,66.16
2023-01-03T23:17:51.964Z,65.85
2023-01-03T23:20:18.560Z,66.39
2023-01-03T23:22:45.173Z,66.33
2023-01-03T23:25:11.943Z,66.25
2023-01-03T23:27:38.478Z,67.08
2023-01-03T23:30:05.214Z,66.28
2023-01-03T23:32:32.206Z,66.81
2023-01-03T23:34:58.796Z,66.86
2023-01-03T23:37:25.345Z,66.76
2023-01-03T23:39:52.111Z,67.76
2023-01-03T23:42:18.705Z,67.61
2023-01-03T23:44:45.243Z,67.84
2023-01-03T23:47:11.787Z,68.69
2023-01-03T23:49:39.220Z,68.02
2023-01-03T23:52:05.933Z,67.90
2023-01-03T23:54:35.290Z,67.22
2023-01-03T23:57:01.958Z,66.50
2023-01-03T23:59:28.492Z,66.81
